Lawn Hill, Iowa
Current Conditions -  °F | °C
As of 12:53 PM on Friday 31 Oct 2014 (Local Time) from KMIW Reporting Station
Clear Clear  
Wind Chill: 30°   Ceiling: Unl
Heat Index: 40°   Visibility: 10mi
Dew Point: 19°   Wind: 21mph
Humidity: 43%   Direction: 350°N
Pressure: 30.47"   Gusts: 25mph
Location:  42.2453°N, 93.1762°W
Report Text: KMIW 311753Z AUTO 35018G22KT 10SM CLR 04/M07 A3047 RMK AO2 SLP324 T00441072 10044 21028 50000
Loading
Personal Weather Stations






























Interactive Weather Map
Tropical Storm Tracking
New forecast layout! Learn more

10-Day Weather Forecast

Advertisements
Track Severe Weather on mobile